sensor_id;sensor_type;location;lat;lon;timestamp;pressure;altitude;pressure_sealevel;temperature;humidity
79138;BME280;68544;45.566;10.238;2023-08-30T00:02:19;98668.75;;;20.87;66.46
79138;BME280;68544;45.566;10.238;2023-08-30T00:04:44;98651.56;;;20.37;66.97
79138;BME280;68544;45.566;10.238;2023-08-30T00:07:10;98670.38;;;20.54;66.51
79138;BME280;68544;45.566;10.238;2023-08-30T00:09:36;98670.69;;;20.86;65.82
79138;BME280;68544;45.566;10.238;2023-08-30T00:12:01;98664.28;;;20.96;66.18
79138;BME280;68544;45.566;10.238;2023-08-30T00:14:26;98658.41;;;21.12;64.89
79138;BME280;68544;45.566;10.238;2023-08-30T00:16:52;98659.81;;;21.10;65.13
79138;BME280;68544;45.566;10.238;2023-08-30T00:19:17;98661.25;;;20.97;65.51
79138;BME280;68544;45.566;10.238;2023-08-30T00:21:42;98676.72;;;20.88;66.55
79138;BME280;68544;45.566;10.238;2023-08-30T00:24:07;98674.34;;;20.72;67.69
79138;BME280;68544;45.566;10.238;2023-08-30T00:26:33;98668.09;;;21.00;66.98
79138;BME280;68544;45.566;10.238;2023-08-30T00:28:58;98655.44;;;20.70;67.61
79138;BME280;68544;45.566;10.238;2023-08-30T00:31:23;98666.31;;;20.80;67.73
79138;BME280;68544;45.566;10.238;2023-08-30T00:33:48;98652.91;;;20.79;67.26
79138;BME280;68544;45.566;10.238;2023-08-30T00:36:14;98667.81;;;21.01;66.82
79138;BME280;68544;45.566;10.238;2023-08-30T00:38:39;98670.03;;;21.04;66.31
79138;BME280;68544;45.566;10.238;2023-08-30T00:41:04;98670.31;;;20.98;66.03
79138;BME280;68544;45.566;10.238;2023-08-30T00:43:30;98677.16;;;21.00;65.25
79138;BME280;68544;45.566;10.238;2023-08-30T00:45:55;98675.72;;;20.74;66.77
79138;BME280;68544;45.566;10.238;2023-08-30T00:48:21;98671.19;;;20.55;67.24
79138;BME280;68544;45.566;10.238;2023-08-30T00:50:46;98673.72;;;20.85;67.05
79138;BME280;68544;45.566;10.238;2023-08-30T00:53:12;98672.13;;;20.79;66.48
79138;BME280;68544;45.566;10.238;2023-08-30T00:55:37;98670.44;;;20.83;66.10
79138;BME280;68544;45.566;10.238;2023-08-30T00:58:04;98665.97;;;20.92;65.89
79138;BME280;68544;45.566;10.238;2023-08-30T01:00:29;98671.66;;;21.00;65.25
79138;BME280;68544;45.566;10.238;2023-08-30T01:02:55;98669.19;;;21.04;64.96
79138;BME280;68544;45.566;10.238;2023-08-30T01:05:20;98664.41;;;20.81;64.80
79138;BME280;68544;45.566;10.238;2023-08-30T01:07:46;98665.59;;;20.70;65.46
79138;BME280;68544;45.566;10.238;2023-08-30T01:10:11;98659.72;;;20.48;65.93
79138;BME280;68544;45.566;10.238;2023-08-30T01:12:40;98670.34;;;20.00;68.24
79138;BME280;68544;45.566;10.238;2023-08-30T01:15:09;98666.97;;;20.28;67.30
79138;BME280;68544;45.566;10.238;2023-08-30T01:17:35;98663.53;;;20.46;66.38
79138;BME280;68544;45.566;10.238;2023-08-30T01:20:03;98657.88;;;20.72;66.02
79138;BME280;68544;45.566;10.238;2023-08-30T01:23:24;98663.22;;;20.58;66.53
79138;BME280;68544;45.566;10.238;2023-08-30T01:28:06;98660.25;;;20.50;67.30
79138;BME280;68544;45.566;10.238;2023-08-30T01:30:32;98667.38;;;20.51;66.69
79138;BME280;68544;45.566;10.238;2023-08-30T01:32:59;98679.81;;;20.38;67.25
79138;BME280;68544;45.566;10.238;2023-08-30T01:35:25;98669.44;;;20.69;66.08
79138;BME280;68544;45.566;10.238;2023-08-30T01:37:55;98663.97;;;20.64;66.53
79138;BME280;68544;45.566;10.238;2023-08-30T01:40:21;98669.41;;;20.74;65.84
79138;BME280;68544;45.566;10.238;2023-08-30T01:42:46;98668.78;;;20.48;67.30
79138;BME280;68544;45.566;10.238;2023-08-30T01:45:13;98669.63;;;20.38;67.56
79138;BME280;68544;45.566;10.238;2023-08-30T01:47:39;98661.75;;;20.27;67.91
79138;BME280;68544;45.566;10.238;2023-08-30T01:50:04;98661.31;;;20.54;67.28
79138;BME280;68544;45.566;10.238;2023-08-30T01:52:30;98666.41;;;20.70;66.31
79138;BME280;68544;45.566;10.238;2023-08-30T01:54:55;98666.50;;;20.06;68.24
79138;BME280;68544;45.566;10.238;2023-08-30T01:57:22;98657.94;;;19.44;70.94
79138;BME280;68544;45.566;10.238;2023-08-30T01:59:47;98659.53;;;19.65;70.72
79138;BME280;68544;45.566;10.238;2023-08-30T02:02:12;98652.47;;;20.23;68.59
79138;BME280;68544;45.566;10.238;2023-08-30T02:04:37;98651.03;;;20.35;67.13
79138;BME280;68544;45.566;10.238;2023-08-30T02:07:20;98659.41;;;20.49;66.15
79138;BME280;68544;45.566;10.238;2023-08-30T02:10:05;98663.06;;;20.34;66.18
79138;BME280;68544;45.566;10.238;2023-08-30T02:12:33;98663.00;;;20.44;66.09
79138;BME280;68544;45.566;10.238;2023-08-30T02:15:00;98661.56;;;20.08;67.29
79138;BME280;68544;45.566;10.238;2023-08-30T02:17:26;98657.75;;;19.99;67.16
79138;BME280;68544;45.566;10.238;2023-08-30T02:19:52;98658.22;;;20.21;67.01
79138;BME280;68544;45.566;10.238;2023-08-30T02:22:18;98662.00;;;20.30;66.35
79138;BME280;68544;45.566;10.238;2023-08-30T02:24:44;98652.09;;;20.34;65.66
79138;BME280;68544;45.566;10.238;2023-08-30T02:27:09;98655.06;;;20.43;65.35
79138;BME280;68544;45.566;10.238;2023-08-30T02:29:34;98645.44;;;20.51;64.98
79138;BME280;68544;45.566;10.238;2023-08-30T02:31:59;98655.22;;;20.62;64.91
79138;BME280;68544;45.566;10.238;2023-08-30T02:34:25;98651.72;;;20.51;64.44
79138;BME280;68544;45.566;10.238;2023-08-30T02:36:50;98661.75;;;20.27;65.94
79138;BME280;68544;45.566;10.238;2023-08-30T02:39:15;98651.09;;;20.15;65.60
79138;BME280;68544;45.566;10.238;2023-08-30T02:41:40;98654.41;;;20.12;65.71
79138;BME280;68544;45.566;10.238;2023-08-30T02:44:10;98648.47;;;19.95;66.43
79138;BME280;68544;45.566;10.238;2023-08-30T02:46:36;98653.56;;;19.28;68.23
79138;BME280;68544;45.566;10.238;2023-08-30T02:49:02;98642.03;;;19.31;68.39
79138;BME280;68544;45.566;10.238;2023-08-30T02:51:28;98642.34;;;19.24;69.35
79138;BME280;68544;45.566;10.238;2023-08-30T02:53:53;98642.53;;;19.68;67.79
79138;BME280;68544;45.566;10.238;2023-08-30T02:56:18;98633.38;;;19.98;66.89
79138;BME280;68544;45.566;10.238;2023-08-30T02:58:43;98642.09;;;20.10;65.84
79138;BME280;68544;45.566;10.238;2023-08-30T03:01:08;98647.25;;;20.21;65.40
79138;BME280;68544;45.566;10.238;2023-08-30T03:03:34;98643.13;;;19.60;67.82
79138;BME280;68544;45.566;10.238;2023-08-30T03:05:59;98645.25;;;19.78;68.13
79138;BME280;68544;45.566;10.238;2023-08-30T03:08:24;98639.03;;;19.52;68.29
79138;BME280;68544;45.566;10.238;2023-08-30T03:10:49;98644.25;;;19.29;68.34
79138;BME280;68544;45.566;10.238;2023-08-30T03:13:15;98644.53;;;18.97;69.47
79138;BME280;68544;45.566;10.238;2023-08-30T03:15:40;98647.28;;;19.12;68.82
79138;BME280;68544;45.566;10.238;2023-08-30T03:18:05;98645.34;;;19.08;69.34
79138;BME280;68544;45.566;10.238;2023-08-30T03:20:30;98644.81;;;19.36;68.95
79138;BME280;68544;45.566;10.238;2023-08-30T03:22:56;98644.25;;;19.19;68.18
79138;BME280;68544;45.566;10.238;2023-08-30T03:25:21;98640.91;;;19.62;66.86
79138;BME280;68544;45.566;10.238;2023-08-30T03:27:46;98645.81;;;19.70;66.16
79138;BME280;68544;45.566;10.238;2023-08-30T03:30:12;98649.16;;;19.52;66.31
79138;BME280;68544;45.566;10.238;2023-08-30T03:32:37;98653.16;;;19.85;65.24
79138;BME280;68544;45.566;10.238;2023-08-30T03:35:03;98652.44;;;19.44;65.92
79138;BME280;68544;45.566;10.238;2023-08-30T03:37:28;98655.19;;;19.29;66.92
79138;BME280;68544;45.566;10.238;2023-08-30T03:39:53;98662.06;;;19.26;66.63
79138;BME280;68544;45.566;10.238;2023-08-30T03:42:19;98660.53;;;19.89;64.54
79138;BME280;68544;45.566;10.238;2023-08-30T03:44:44;98658.06;;;19.88;63.84
79138;BME280;68544;45.566;10.238;2023-08-30T03:47:09;98661.09;;;19.86;64.28
79138;BME280;68544;45.566;10.238;2023-08-30T03:49:34;98658.59;;;19.90;64.33
79138;BME280;68544;45.566;10.238;2023-08-30T03:52:00;98660.66;;;19.49;65.89
79138;BME280;68544;45.566;10.238;2023-08-30T03:54:25;98668.84;;;19.54;66.52
79138;BME280;68544;45.566;10.238;2023-08-30T03:56:50;98659.31;;;19.51;67.35
79138;BME280;68544;45.566;10.238;2023-08-30T03:59:16;98666.63;;;19.71;66.39
79138;BME280;68544;45.566;10.238;2023-08-30T04:01:41;98667.22;;;19.53;66.39
79138;BME280;68544;45.566;10.238;2023-08-30T04:04:06;98668.19;;;19.92;65.90
79138;BME280;68544;45.566;10.238;2023-08-30T04:06:31;98673.69;;;19.87;65.73
79138;BME280;68544;45.566;10.238;2023-08-30T04:08:57;98674.06;;;19.50;67.01
79138;BME280;68544;45.566;10.238;2023-08-30T04:11:22;98671.31;;;19.65;66.40
79138;BME280;68544;45.566;10.238;2023-08-30T04:13:47;98670.53;;;19.45;67.52
79138;BME280;68544;45.566;10.238;2023-08-30T04:16:12;98673.25;;;19.30;67.40
79138;BME280;68544;45.566;10.238;2023-08-30T04:18:38;98673.25;;;19.25;67.22
79138;BME280;68544;45.566;10.238;2023-08-30T04:21:03;98677.63;;;19.56;65.78
79138;BME280;68544;45.566;10.238;2023-08-30T04:23:29;98675.31;;;19.93;64.26
79138;BME280;68544;45.566;10.238;2023-08-30T04:25:54;98682.94;;;20.01;63.85
79138;BME280;68544;45.566;10.238;2023-08-30T04:28:19;98680.31;;;19.71;64.72
79138;BME280;68544;45.566;10.238;2023-08-30T04:30:44;98679.19;;;19.77;64.88
79138;BME280;68544;45.566;10.238;2023-08-30T04:33:10;98680.75;;;20.08;63.43
79138;BME280;68544;45.566;10.238;2023-08-30T04:35:35;98675.75;;;20.15;62.63
79138;BME280;68544;45.566;10.238;2023-08-30T04:38:01;98674.16;;;20.09;62.05
79138;BME280;68544;45.566;10.238;2023-08-30T04:40:26;98683.53;;;19.93;62.34
79138;BME280;68544;45.566;10.238;2023-08-30T04:42:52;98675.47;;;19.28;65.14
79138;BME280;68544;45.566;10.238;2023-08-30T04:45:17;98677.66;;;18.80;65.82
79138;BME280;68544;45.566;10.238;2023-08-30T04:47:42;98678.22;;;18.92;65.98
79138;BME280;68544;45.566;10.238;2023-08-30T04:50:10;98665.63;;;19.22;64.46
79138;BME280;68544;45.566;10.238;2023-08-30T04:52:35;98670.00;;;18.98;66.26
79138;BME280;68544;45.566;10.238;2023-08-30T04:55:01;98670.28;;;18.96;65.97
79138;BME280;68544;45.566;10.238;2023-08-30T04:57:26;98665.63;;;18.76;66.13
79138;BME280;68544;45.566;10.238;2023-08-30T04:59:51;98672.75;;;19.03;66.01
79138;BME280;68544;45.566;10.238;2023-08-30T05:02:16;98677.91;;;19.39;63.91
79138;BME280;68544;45.566;10.238;2023-08-30T05:04:42;98673.00;;;19.26;64.02
79138;BME280;68544;45.566;10.238;2023-08-30T05:07:07;98679.28;;;19.47;63.25
79138;BME280;68544;45.566;10.238;2023-08-30T05:09:32;98679.78;;;19.74;62.59
79138;BME280;68544;45.566;10.238;2023-08-30T05:11:58;98674.63;;;19.27;64.27
79138;BME280;68544;45.566;10.238;2023-08-30T05:14:23;98676.53;;;19.52;63.34
79138;BME280;68544;45.566;10.238;2023-08-30T05:16:49;98678.75;;;19.30;64.02
79138;BME280;68544;45.566;10.238;2023-08-30T05:19:14;98678.47;;;19.21;64.84
79138;BME280;68544;45.566;10.238;2023-08-30T05:21:41;98678.75;;;19.05;65.19
79138;BME280;68544;45.566;10.238;2023-08-30T05:24:06;98681.22;;;19.21;64.29
79138;BME280;68544;45.566;10.238;2023-08-30T05:26:32;98680.66;;;19.04;64.86
79138;BME280;68544;45.566;10.238;2023-08-30T05:28:57;98687.22;;;19.28;64.43
79138;BME280;68544;45.566;10.238;2023-08-30T05:31:22;98691.34;;;19.36;64.66
79138;BME280;68544;45.566;10.238;2023-08-30T05:33:47;98691.88;;;18.87;66.11
79138;BME280;68544;45.566;10.238;2023-08-30T05:36:13;98684.78;;;19.07;65.39
79138;BME280;68544;45.566;10.238;2023-08-30T05:38:38;98688.88;;;18.84;66.68
79138;BME280;68544;45.566;10.238;2023-08-30T05:41:03;98689.13;;;19.58;64.70
79138;BME280;68544;45.566;10.238;2023-08-30T05:43:29;98697.09;;;19.44;65.42
79138;BME280;68544;45.566;10.238;2023-08-30T05:45:54;98691.34;;;19.41;65.38
79138;BME280;68544;45.566;10.238;2023-08-30T05:48:19;98712.66;;;19.54;64.98
79138;BME280;68544;45.566;10.238;2023-08-30T05:50:45;98705.00;;;19.61;64.07
79138;BME280;68544;45.566;10.238;2023-08-30T05:53:10;98707.22;;;19.44;64.69
79138;BME280;68544;45.566;10.238;2023-08-30T05:55:35;98709.41;;;19.47;64.14
79138;BME280;68544;45.566;10.238;2023-08-30T05:58:02;98707.16;;;19.74;63.72
79138;BME280;68544;45.566;10.238;2023-08-30T06:00:27;98712.34;;;19.76;62.99
79138;BME280;68544;45.566;10.238;2023-08-30T06:02:52;98716.97;;;19.90;61.83
79138;BME280;68544;45.566;10.238;2023-08-30T06:05:17;98721.81;;;20.13;61.20
79138;BME280;68544;45.566;10.238;2023-08-30T06:07:43;98716.91;;;20.00;61.58
79138;BME280;68544;45.566;10.238;2023-08-30T06:10:08;98721.00;;;20.23;61.31
79138;BME280;68544;45.566;10.238;2023-08-30T06:12:34;98725.06;;;20.25;61.57
79138;BME280;68544;45.566;10.238;2023-08-30T06:14:59;98716.00;;;20.40;61.34
79138;BME280;68544;45.566;10.238;2023-08-30T06:17:24;98719.88;;;20.24;62.17
79138;BME280;68544;45.566;10.238;2023-08-30T06:19:49;98718.97;;;20.43;61.31
79138;BME280;68544;45.566;10.238;2023-08-30T06:22:14;98722.09;;;20.71;60.72
79138;BME280;68544;45.566;10.238;2023-08-30T06:24:40;98718.69;;;20.89;59.95
79138;BME280;68544;45.566;10.238;2023-08-30T06:27:05;98734.16;;;20.75;60.38
79138;BME280;68544;45.566;10.238;2023-08-30T06:29:30;98736.88;;;20.75;59.96
79138;BME280;68544;45.566;10.238;2023-08-30T06:31:56;98731.22;;;21.05;58.56
79138;BME280;68544;45.566;10.238;2023-08-30T06:34:21;98734.75;;;20.62;60.00
79138;BME280;68544;45.566;10.238;2023-08-30T06:36:46;98735.81;;;20.76;60.48
79138;BME280;68544;45.566;10.238;2023-08-30T06:39:11;98737.81;;;20.60;60.10
79138;BME280;68544;45.566;10.238;2023-08-30T06:41:36;98744.81;;;20.81;60.27
79138;BME280;68544;45.566;10.238;2023-08-30T06:44:02;98739.78;;;21.32;59.10
79138;BME280;68544;45.566;10.238;2023-08-30T06:46:27;98744.63;;;21.45;58.47
79138;BME280;68544;45.566;10.238;2023-08-30T06:48:52;98739.38;;;21.49;58.63
79138;BME280;68544;45.566;10.238;2023-08-30T06:51:17;98740.94;;;21.26;59.77
79138;BME280;68544;45.566;10.238;2023-08-30T06:53:43;98739.72;;;21.42;59.14
79138;BME280;68544;45.566;10.238;2023-08-30T06:56:08;98738.47;;;21.24;59.75
79138;BME280;68544;45.566;10.238;2023-08-30T06:58:33;98736.03;;;21.52;58.77
79138;BME280;68544;45.566;10.238;2023-08-30T07:00:58;98746.06;;;21.04;59.89
79138;BME280;68544;45.566;10.238;2023-08-30T07:03:24;98744.75;;;21.30;59.19
79138;BME280;68544;45.566;10.238;2023-08-30T07:05:50;98753.34;;;21.18;59.65
79138;BME280;68544;45.566;10.238;2023-08-30T07:08:16;98750.13;;;21.45;58.31
79138;BME280;68544;45.566;10.238;2023-08-30T07:10:41;98750.50;;;21.62;57.86
79138;BME280;68544;45.566;10.238;2023-08-30T07:13:06;98750.50;;;21.62;57.06
79138;BME280;68544;45.566;10.238;2023-08-30T07:15:35;98755.13;;;21.38;58.43
79138;BME280;68544;45.566;10.238;2023-08-30T07:18:01;98754.38;;;21.61;58.09
79138;BME280;68544;45.566;10.238;2023-08-30T07:20:26;98753.94;;;21.49;57.67
79138;BME280;68544;45.566;10.238;2023-08-30T07:22:51;98761.88;;;21.79;57.04
79138;BME280;68544;45.566;10.238;2023-08-30T07:25:16;98763.81;;;22.08;56.49
79138;BME280;68544;45.566;10.238;2023-08-30T07:27:42;98758.31;;;22.08;55.50
79138;BME280;68544;45.566;10.238;2023-08-30T07:30:07;98763.69;;;21.60;56.60
79138;BME280;68544;45.566;10.238;2023-08-30T07:32:32;98761.78;;;21.89;55.88
79138;BME280;68544;45.566;10.238;2023-08-30T07:34:58;98761.09;;;22.50;54.59
79138;BME280;68544;45.566;10.238;2023-08-30T07:37:23;98763.91;;;22.87;52.46
79138;BME280;68544;45.566;10.238;2023-08-30T07:39:48;98763.50;;;23.49;50.28
79138;BME280;68544;45.566;10.238;2023-08-30T07:42:13;98754.56;;;23.58;49.72
79138;BME280;68544;45.566;10.238;2023-08-30T07:44:39;98764.16;;;23.09;50.35
79138;BME280;68544;45.566;10.238;2023-08-30T07:47:05;98773.72;;;22.93;51.04
79138;BME280;68544;45.566;10.238;2023-08-30T07:49:30;98766.13;;;23.73;49.49
79138;BME280;68544;45.566;10.238;2023-08-30T07:51:55;98768.97;;;24.27;48.34
79138;BME280;68544;45.566;10.238;2023-08-30T07:54:25;98777.06;;;24.51;47.08
79138;BME280;68544;45.566;10.238;2023-08-30T07:56:51;98772.53;;;23.69;48.40
79138;BME280;68544;45.566;10.238;2023-08-30T07:59:16;98772.41;;;23.92;48.37
79138;BME280;68544;45.566;10.238;2023-08-30T08:01:41;98778.03;;;24.01;47.90
79138;BME280;68544;45.566;10.238;2023-08-30T08:04:06;98771.84;;;24.50;46.53
79138;BME280;68544;45.566;10.238;2023-08-30T08:06:31;98781.97;;;24.54;46.32
79138;BME280;68544;45.566;10.238;2023-08-30T08:08:57;98788.19;;;24.73;45.28
79138;BME280;68544;45.566;10.238;2023-08-30T08:11:22;98783.91;;;25.39;43.74
79138;BME280;68544;45.566;10.238;2023-08-30T08:13:47;98788.59;;;25.30;44.38
79138;BME280;68544;45.566;10.238;2023-08-30T08:16:12;98778.56;;;24.84;45.57
79138;BME280;68544;45.566;10.238;2023-08-30T08:18:37;98787.06;;;25.24;45.30
79138;BME280;68544;45.566;10.238;2023-08-30T08:21:03;98784.75;;;27.10;43.01
79138;BME280;68544;45.566;10.238;2023-08-30T08:23:29;98781.97;;;28.42;38.97
79138;BME280;68544;45.566;10.238;2023-08-30T08:25:57;98782.16;;;29.24;37.37
79138;BME280;68544;45.566;10.238;2023-08-30T08:28:22;98779.09;;;30.84;34.09
79138;BME280;68544;45.566;10.238;2023-08-30T08:30:48;98783.66;;;29.42;37.07
79138;BME280;68544;45.566;10.238;2023-08-30T08:33:16;98777.88;;;30.94;34.16
79138;BME280;68544;45.566;10.238;2023-08-30T08:35:42;98787.31;;;31.69;32.57
79138;BME280;68544;45.566;10.238;2023-08-30T08:38:07;98780.84;;;32.08;31.52
79138;BME280;68544;45.566;10.238;2023-08-30T08:40:33;98788.38;;;30.28;34.92
79138;BME280;68544;45.566;10.238;2023-08-30T08:43:01;98801.38;;;29.38;36.90
79138;BME280;68544;45.566;10.238;2023-08-30T08:45:27;98807.91;;;29.13;37.65
79138;BME280;68544;45.566;10.238;2023-08-30T08:47:52;98806.41;;;29.44;37.08
79138;BME280;68544;45.566;10.238;2023-08-30T08:50:19;98811.16;;;29.15;38.09
79138;BME280;68544;45.566;10.238;2023-08-30T08:52:44;98801.78;;;29.48;37.65
79138;BME280;68544;45.566;10.238;2023-08-30T08:55:11;98808.34;;;29.44;37.08
79138;BME280;68544;45.566;10.238;2023-08-30T08:57:36;98808.63;;;30.16;36.46
79138;BME280;68544;45.566;10.238;2023-08-30T09:00:03;98818.06;;;30.12;36.16
79138;BME280;68544;45.566;10.238;2023-08-30T09:02:28;98811.91;;;30.87;35.33
79138;BME280;68544;45.566;10.238;2023-08-30T09:04:54;98803.28;;;34.58;28.37
79138;BME280;68544;45.566;10.238;2023-08-30T09:07:19;98793.34;;;37.37;24.43
79138;BME280;68544;45.566;10.238;2023-08-30T09:09:44;98788.75;;;39.77;20.84
79138;BME280;68544;45.566;10.238;2023-08-30T09:12:10;98792.16;;;40.20;19.38
79138;BME280;68544;45.566;10.238;2023-08-30T09:14:35;98795.38;;;41.62;18.07
79138;BME280;68544;45.566;10.238;2023-08-30T09:17:01;98794.16;;;41.59;17.95
79138;BME280;68544;45.566;10.238;2023-08-30T09:19:27;98788.31;;;41.43;17.89
79138;BME280;68544;45.566;10.238;2023-08-30T09:24:18;98777.53;;;44.20;15.41
79138;BME280;68544;45.566;10.238;2023-08-30T09:26:46;98781.31;;;43.77;15.43
79138;BME280;68544;45.566;10.238;2023-08-30T09:29:12;98784.63;;;44.47;14.90
79138;BME280;68544;45.566;10.238;2023-08-30T09:31:37;98789.97;;;43.51;15.20
79138;BME280;68544;45.566;10.238;2023-08-30T09:34:04;98783.56;;;44.57;14.14
79138;BME280;68544;45.566;10.238;2023-08-30T09:36:33;98781.50;;;46.59;12.52
79138;BME280;68544;45.566;10.238;2023-08-30T09:38:59;98774.19;;;46.45;12.37
79138;BME280;68544;45.566;10.238;2023-08-30T09:41:24;98777.97;;;46.42;12.47
79138;BME280;68544;45.566;10.238;2023-08-30T09:43:49;98776.91;;;46.24;11.67
79138;BME280;68544;45.566;10.238;2023-08-30T09:46:14;98772.09;;;45.95;12.21
79138;BME280;68544;45.566;10.238;2023-08-30T09:48:40;98774.50;;;46.85;11.54
79138;BME280;68544;45.566;10.238;2023-08-30T09:51:07;98770.06;;;45.67;12.58
79138;BME280;68544;45.566;10.238;2023-08-30T09:53:33;98785.59;;;47.64;9.80
79138;BME280;68544;45.566;10.238;2023-08-30T09:56:01;98777.81;;;47.30;10.31
79138;BME280;68544;45.566;10.238;2023-08-30T09:58:27;98772.06;;;48.87;9.18
79138;BME280;68544;45.566;10.238;2023-08-30T10:00:52;98765.47;;;46.24;11.05
79138;BME280;68544;45.566;10.238;2023-08-30T10:03:18;98762.88;;;48.22;9.69
79138;BME280;68544;45.566;10.238;2023-08-30T10:05:44;98764.28;;;48.08;8.90
79138;BME280;68544;45.566;10.238;2023-08-30T10:08:09;98765.88;;;48.49;8.47
79138;BME280;68544;45.566;10.238;2023-08-30T10:10:36;98760.00;;;49.20;7.61
79138;BME280;68544;45.566;10.238;2023-08-30T10:13:02;98756.47;;;49.06;8.13
79138;BME280;68544;45.566;10.238;2023-08-30T10:15:28;98756.97;;;50.28;7.59
79138;BME280;68544;45.566;10.238;2023-08-30T10:17:57;98763.41;;;45.29;11.09
79138;BME280;68544;45.566;10.238;2023-08-30T10:20:23;98759.88;;;48.74;7.87
79138;BME280;68544;45.566;10.238;2023-08-30T10:22:48;98760.44;;;48.42;7.66
79138;BME280;68544;45.566;10.238;2023-08-30T10:25:18;98757.88;;;48.93;8.13
79138;BME280;68544;45.566;10.238;2023-08-30T10:27:46;98758.09;;;51.20;7.08
79138;BME280;68544;45.566;10.238;2023-08-30T10:30:12;98757.69;;;50.47;7.78
79138;BME280;68544;45.566;10.238;2023-08-30T10:32:38;98757.91;;;49.74;7.65
79138;BME280;68544;45.566;10.238;2023-08-30T10:35:04;98753.38;;;50.84;7.28
79138;BME280;68544;45.566;10.238;2023-08-30T10:37:29;98748.56;;;48.22;8.75
79138;BME280;68544;45.566;10.238;2023-08-30T10:39:59;98756.06;;;48.68;8.92
79138;BME280;68544;45.566;10.238;2023-08-30T10:42:24;98744.66;;;48.86;8.90
79138;BME280;68544;45.566;10.238;2023-08-30T10:44:50;98749.47;;;49.62;8.54
79138;BME280;68544;45.566;10.238;2023-08-30T10:47:18;98752.19;;;49.56;8.44
79138;BME280;68544;45.566;10.238;2023-08-30T10:49:46;98755.50;;;46.91;10.14
79138;BME280;68544;45.566;10.238;2023-08-30T10:52:11;98750.56;;;48.43;8.72
79138;BME280;68544;45.566;10.238;2023-08-30T10:54:37;98750.31;;;50.22;7.72
79138;BME280;68544;45.566;10.238;2023-08-30T10:57:03;98750.47;;;50.61;7.69
79138;BME280;68544;45.566;10.238;2023-08-30T10:59:29;98747.91;;;51.48;7.12
79138;BME280;68544;45.566;10.238;2023-08-30T11:02:00;98753.03;;;48.23;8.17
79138;BME280;68544;45.566;10.238;2023-08-30T11:04:26;98747.75;;;48.52;8.34
79138;BME280;68544;45.566;10.238;2023-08-30T11:06:51;98745.84;;;48.58;8.40
79138;BME280;68544;45.566;10.238;2023-08-30T11:09:17;98750.78;;;47.10;9.39
79138;BME280;68544;45.566;10.238;2023-08-30T11:11:43;98747.75;;;45.50;10.25
79138;BME280;68544;45.566;10.238;2023-08-30T11:14:09;98750.50;;;43.92;11.37
79138;BME280;68544;45.566;10.238;2023-08-30T11:16:34;98747.47;;;43.01;12.13
79138;BME280;68544;45.566;10.238;2023-08-30T11:19:00;98748.94;;;42.63;12.17
79138;BME280;68544;45.566;10.238;2023-08-30T11:21:26;98745.19;;;42.19;13.13
79138;BME280;68544;45.566;10.238;2023-08-30T11:23:52;98746.69;;;42.27;12.85
79138;BME280;68544;45.566;10.238;2023-08-30T11:26:17;98736.09;;;43.63;11.87
79138;BME280;68544;45.566;10.238;2023-08-30T11:28:42;98735.88;;;43.35;11.85
79138;BME280;68544;45.566;10.238;2023-08-30T11:31:17;98734.13;;;43.41;11.51
79138;BME280;68544;45.566;10.238;2023-08-30T11:33:49;98734.38;;;44.05;11.13
79138;BME280;68544;45.566;10.238;2023-08-30T11:36:14;98730.16;;;44.45;10.86
79138;BME280;68544;45.566;10.238;2023-08-30T11:38:39;98727.00;;;45.04;10.87
79138;BME280;68544;45.566;10.238;2023-08-30T11:41:05;98732.78;;;42.33;12.61
79138;BME280;68544;45.566;10.238;2023-08-30T11:43:31;98723.22;;;44.62;10.91
79138;BME280;68544;45.566;10.238;2023-08-30T11:45:56;98727.53;;;41.44;13.32
79138;BME280;68544;45.566;10.238;2023-08-30T11:48:22;98717.09;;;43.96;12.17
79138;BME280;68544;45.566;10.238;2023-08-30T11:50:47;98727.28;;;42.22;13.43
79138;BME280;68544;45.566;10.238;2023-08-30T11:53:12;98720.72;;;41.38;14.32
79138;BME280;68544;45.566;10.238;2023-08-30T11:55:38;98730.00;;;38.14;17.38
79138;BME280;68544;45.566;10.238;2023-08-30T11:58:03;98727.59;;;38.26;17.52
79138;BME280;68544;45.566;10.238;2023-08-30T12:00:29;98726.66;;;37.62;17.89
79138;BME280;68544;45.566;10.238;2023-08-30T12:02:57;98727.34;;;37.35;18.44
79138;BME280;68544;45.566;10.238;2023-08-30T12:05:23;98724.34;;;36.49;19.07
79138;BME280;68544;45.566;10.238;2023-08-30T12:07:48;98719.47;;;37.79;17.86
79138;BME280;68544;45.566;10.238;2023-08-30T12:10:13;98721.16;;;34.58;21.27
79138;BME280;68544;45.566;10.238;2023-08-30T12:12:45;98715.75;;;34.72;22.44
79138;BME280;68544;45.566;10.238;2023-08-30T12:15:10;98712.81;;;36.20;20.47
79138;BME280;68544;45.566;10.238;2023-08-30T12:17:36;98713.59;;;36.17;20.17
79138;BME280;68544;45.566;10.238;2023-08-30T12:20:02;98713.19;;;35.16;21.01
79138;BME280;68544;45.566;10.238;2023-08-30T12:22:41;98705.91;;;36.58;19.37
79138;BME280;68544;45.566;10.238;2023-08-30T12:25:15;98710.09;;;36.31;19.88
79138;BME280;68544;45.566;10.238;2023-08-30T12:27:41;98711.88;;;35.69;21.10
79138;BME280;68544;45.566;10.238;2023-08-30T12:30:06;98709.25;;;35.20;22.00
79138;BME280;68544;45.566;10.238;2023-08-30T12:32:32;98707.13;;;35.10;21.80
79138;BME280;68544;45.566;10.238;2023-08-30T12:34:57;98708.94;;;34.47;22.40
79138;BME280;68544;45.566;10.238;2023-08-30T12:37:23;98704.91;;;34.22;22.67
79138;BME280;68544;45.566;10.238;2023-08-30T12:39:49;98707.81;;;33.45;23.32
79138;BME280;68544;45.566;10.238;2023-08-30T12:42:14;98702.97;;;33.42;22.96
79138;BME280;68544;45.566;10.238;2023-08-30T12:44:39;98705.19;;;33.71;22.43
79138;BME280;68544;45.566;10.238;2023-08-30T12:47:04;98700.59;;;31.77;25.95
79138;BME280;68544;45.566;10.238;2023-08-30T12:49:29;98698.00;;;32.97;24.17